sensor_id;sensor_type;location;lat;lon;timestamp;pressure;altitude;pressure_sealevel;temperature;humidity
804;BME280;25687;49.976;8.240;2023-04-27T00:02:06;100284.56;;;5.80;100.00
804;BME280;25687;49.976;8.240;2023-04-27T00:04:31;100283.09;;;5.72;100.00
804;BME280;25687;49.976;8.240;2023-04-27T00:06:57;100284.41;;;5.57;100.00
804;BME280;25687;49.976;8.240;2023-04-27T00:09:22;100283.03;;;5.46;100.00
804;BME280;25687;49.976;8.240;2023-04-27T00:11:47;100284.22;;;5.34;100.00
804;BME280;25687;49.976;8.240;2023-04-27T00:14:13;100276.69;;;5.31;100.00
804;BME280;25687;49.976;8.240;2023-04-27T00:16:38;100273.66;;;5.19;100.00
804;BME280;25687;49.976;8.240;2023-04-27T00:19:03;100274.97;;;5.04;100.00
804;BME280;25687;49.976;8.240;2023-04-27T00:21:29;100270.91;;;4.95;100.00
804;BME280;25687;49.976;8.240;2023-04-27T00:23:54;100272.13;;;4.83;100.00
804;BME280;25687;49.976;8.240;2023-04-27T00:26:20;100273.03;;;4.80;100.00
804;BME280;25687;49.976;8.240;2023-04-27T00:28:46;100276.69;;;4.72;100.00
804;BME280;25687;49.976;8.240;2023-04-27T00:31:12;100280.28;;;4.64;100.00
804;BME280;25687;49.976;8.240;2023-04-27T00:33:37;100271.81;;;4.62;100.00
804;BME280;25687;49.976;8.240;2023-04-27T00:36:02;100278.00;;;4.53;100.00
804;BME280;25687;49.976;8.240;2023-04-27T00:38:28;100276.59;;;4.43;100.00
804;BME280;25687;49.976;8.240;2023-04-27T00:41:03;100276.75;;;4.37;100.00
804;BME280;25687;49.976;8.240;2023-04-27T00:43:29;100280.97;;;4.38;100.00
804;BME280;25687;49.976;8.240;2023-04-27T00:45:55;100280.81;;;4.43;100.00
804;BME280;25687;49.976;8.240;2023-04-27T00:48:21;100285.75;;;4.49;100.00
804;BME280;25687;49.976;8.240;2023-04-27T00:50:46;100280.50;;;4.57;100.00
804;BME280;25687;49.976;8.240;2023-04-27T00:53:13;100278.75;;;4.57;100.00
804;BME280;25687;49.976;8.240;2023-04-27T00:55:39;100274.69;;;4.50;100.00
804;BME280;25687;49.976;8.240;2023-04-27T00:58:04;100268.63;;;4.56;100.00
804;BME280;25687;49.976;8.240;2023-04-27T01:00:29;100272.03;;;4.55;100.00
804;BME280;25687;49.976;8.240;2023-04-27T01:02:55;100279.56;;;4.59;100.00
804;BME280;25687;49.976;8.240;2023-04-27T01:05:21;100288.94;;;4.57;100.00
804;BME280;25687;49.976;8.240;2023-04-27T01:07:47;100280.44;;;4.58;100.00
804;BME280;25687;49.976;8.240;2023-04-27T01:10:12;100280.59;;;4.52;100.00
804;BME280;25687;49.976;8.240;2023-04-27T01:12:37;100278.44;;;4.36;100.00
804;BME280;25687;49.976;8.240;2023-04-27T01:15:04;100280.38;;;4.28;100.00
804;BME280;25687;49.976;8.240;2023-04-27T01:17:29;100281.31;;;4.24;100.00
804;BME280;25687;49.976;8.240;2023-04-27T01:19:55;100278.03;;;4.19;100.00
804;BME280;25687;49.976;8.240;2023-04-27T01:22:20;100287.59;;;4.11;100.00
804;BME280;25687;49.976;8.240;2023-04-27T01:24:46;100282.66;;;4.04;100.00
804;BME280;25687;49.976;8.240;2023-04-27T01:27:11;100286.22;;;3.97;100.00
804;BME280;25687;49.976;8.240;2023-04-27T01:29:37;100295.09;;;3.81;100.00
804;BME280;25687;49.976;8.240;2023-04-27T01:32:03;100295.97;;;3.78;100.00
804;BME280;25687;49.976;8.240;2023-04-27T01:34:28;100299.56;;;3.71;100.00
804;BME280;25687;49.976;8.240;2023-04-27T01:36:54;100295.38;;;3.68;100.00
804;BME280;25687;49.976;8.240;2023-04-27T01:39:19;100300.72;;;3.58;100.00
804;BME280;25687;49.976;8.240;2023-04-27T01:41:44;100291.50;;;3.52;100.00
804;BME280;25687;49.976;8.240;2023-04-27T01:44:10;100295.53;;;3.61;100.00
804;BME280;25687;49.976;8.240;2023-04-27T01:46:36;100300.72;;;3.58;100.00
804;BME280;25687;49.976;8.240;2023-04-27T01:49:01;100296.63;;;3.50;100.00
804;BME280;25687;49.976;8.240;2023-04-27T01:51:27;100302.63;;;3.48;100.00
804;BME280;25687;49.976;8.240;2023-04-27T01:53:52;100294.25;;;3.41;100.00
804;BME280;25687;49.976;8.240;2023-04-27T01:56:17;100286.63;;;3.43;100.00
804;BME280;25687;49.976;8.240;2023-04-27T01:58:43;100297.72;;;3.40;100.00
804;BME280;25687;49.976;8.240;2023-04-27T02:01:08;100294.31;;;3.39;100.00
804;BME280;25687;49.976;8.240;2023-04-27T02:03:33;100294.44;;;3.33;100.00
804;BME280;25687;49.976;8.240;2023-04-27T02:05:58;100294.56;;;3.27;100.00
804;BME280;25687;49.976;8.240;2023-04-27T02:08:24;100304.88;;;3.21;100.00
804;BME280;25687;49.976;8.240;2023-04-27T02:10:49;100303.97;;;3.23;100.00
804;BME280;25687;49.976;8.240;2023-04-27T02:13:14;100306.59;;;3.20;100.00
804;BME280;25687;49.976;8.240;2023-04-27T02:15:39;100307.50;;;3.18;100.00
804;BME280;25687;49.976;8.240;2023-04-27T02:18:05;100307.53;;;3.16;100.00
804;BME280;25687;49.976;8.240;2023-04-27T02:20:31;100309.06;;;3.23;100.00
804;BME280;25687;49.976;8.240;2023-04-27T02:22:56;100312.63;;;3.16;100.00
804;BME280;25687;49.976;8.240;2023-04-27T02:25:21;100314.44;;;3.10;100.00
804;BME280;25687;49.976;8.240;2023-04-27T02:27:47;100315.97;;;3.17;100.00
804;BME280;25687;49.976;8.240;2023-04-27T02:30:12;100313.47;;;3.14;100.00
804;BME280;25687;49.976;8.240;2023-04-27T02:32:38;100319.47;;;3.11;100.00
804;BME280;25687;49.976;8.240;2023-04-27T02:35:04;100326.31;;;3.09;100.00
804;BME280;25687;49.976;8.240;2023-04-27T02:37:29;100339.06;;;3.06;100.00
804;BME280;25687;49.976;8.240;2023-04-27T02:39:55;100333.31;;;2.98;100.00
804;BME280;25687;49.976;8.240;2023-04-27T02:42:20;100325.81;;;2.90;100.00
804;BME280;25687;49.976;8.240;2023-04-27T02:44:46;100320.84;;;2.84;100.00
804;BME280;25687;49.976;8.240;2023-04-27T02:47:12;100319.34;;;2.73;100.00
804;BME280;25687;49.976;8.240;2023-04-27T02:49:37;100315.16;;;2.71;100.00
804;BME280;25687;49.976;8.240;2023-04-27T02:52:03;100311.78;;;2.72;100.00
804;BME280;25687;49.976;8.240;2023-04-27T02:54:28;100319.41;;;2.70;100.00
804;BME280;25687;49.976;8.240;2023-04-27T02:56:54;100308.56;;;2.62;100.00
804;BME280;25687;49.976;8.240;2023-04-27T02:59:19;100318.72;;;2.62;100.00
804;BME280;25687;49.976;8.240;2023-04-27T03:01:45;100318.72;;;2.62;100.00
804;BME280;25687;49.976;8.240;2023-04-27T03:04:10;100317.06;;;2.60;100.00
804;BME280;25687;49.976;8.240;2023-04-27T03:06:38;100316.19;;;2.62;100.00
804;BME280;25687;49.976;8.240;2023-04-27T03:09:03;100312.78;;;2.62;100.00
804;BME280;25687;49.976;8.240;2023-04-27T03:11:29;100310.16;;;2.66;100.00
804;BME280;25687;49.976;8.240;2023-04-27T03:13:55;100304.22;;;2.67;100.00
804;BME280;25687;49.976;8.240;2023-04-27T03:16:20;100310.00;;;2.74;100.00
804;BME280;25687;49.976;8.240;2023-04-27T03:18:45;100304.84;;;2.79;100.00
804;BME280;25687;49.976;8.240;2023-04-27T03:21:11;100311.53;;;2.84;100.00
804;BME280;25687;49.976;8.240;2023-04-27T03:23:37;100303.75;;;2.92;100.00
804;BME280;25687;49.976;8.240;2023-04-27T03:26:10;100309.00;;;2.83;100.00
804;BME280;25687;49.976;8.240;2023-04-27T03:28:36;100313.72;;;3.03;100.00
804;BME280;25687;49.976;8.240;2023-04-27T03:31:10;100313.00;;;2.96;100.00
804;BME280;25687;49.976;8.240;2023-04-27T03:33:35;100313.72;;;3.01;100.00
804;BME280;25687;49.976;8.240;2023-04-27T03:36:02;100294.25;;;3.02;100.00
804;BME280;25687;49.976;8.240;2023-04-27T03:38:29;100301.91;;;3.00;100.00
804;BME280;25687;49.976;8.240;2023-04-27T03:40:54;100301.88;;;3.02;100.00
804;BME280;25687;49.976;8.240;2023-04-27T03:43:20;100295.13;;;3.01;100.00
804;BME280;25687;49.976;8.240;2023-04-27T03:45:46;100298.59;;;2.97;100.00
804;BME280;25687;49.976;8.240;2023-04-27T03:48:12;100301.19;;;2.94;100.00
804;BME280;25687;49.976;8.240;2023-04-27T03:50:38;100300.19;;;3.01;100.00
804;BME280;25687;49.976;8.240;2023-04-27T03:53:03;100303.50;;;3.04;100.00
804;BME280;25687;49.976;8.240;2023-04-27T03:55:28;100305.09;;;3.10;100.00
804;BME280;25687;49.976;8.240;2023-04-27T03:57:54;100304.91;;;3.19;100.00
804;BME280;25687;49.976;8.240;2023-04-27T04:00:19;100300.44;;;3.31;100.00
804;BME280;25687;49.976;8.240;2023-04-27T04:02:44;100313.88;;;3.37;100.00
804;BME280;25687;49.976;8.240;2023-04-27T04:05:11;100312.06;;;3.43;100.00
804;BME280;25687;49.976;8.240;2023-04-27T04:07:38;100312.06;;;3.41;100.00
804;BME280;25687;49.976;8.240;2023-04-27T04:10:06;100308.66;;;3.44;100.00
804;BME280;25687;49.976;8.240;2023-04-27T04:12:31;100313.47;;;3.56;100.00
804;BME280;25687;49.976;8.240;2023-04-27T04:14:57;100320.84;;;3.67;100.00
804;BME280;25687;49.976;8.240;2023-04-27T04:17:22;100309.63;;;3.76;100.00
804;BME280;25687;49.976;8.240;2023-04-27T04:19:48;100312.78;;;3.87;100.00
804;BME280;25687;49.976;8.240;2023-04-27T04:22:13;100315.00;;;3.99;100.00
804;BME280;25687;49.976;8.240;2023-04-27T04:24:38;100306.47;;;4.02;100.00
804;BME280;25687;49.976;8.240;2023-04-27T04:27:04;100310.53;;;4.09;100.00
804;BME280;25687;49.976;8.240;2023-04-27T04:29:30;100312.31;;;4.06;100.00
804;BME280;25687;49.976;8.240;2023-04-27T04:31:55;100307.97;;;4.09;100.00
804;BME280;25687;49.976;8.240;2023-04-27T04:34:20;100314.66;;;4.15;100.00
804;BME280;25687;49.976;8.240;2023-04-27T04:36:47;100312.88;;;4.18;100.00
804;BME280;25687;49.976;8.240;2023-04-27T04:39:15;100319.38;;;4.29;100.00
804;BME280;25687;49.976;8.240;2023-04-27T04:41:41;100315.91;;;4.33;100.00
804;BME280;25687;49.976;8.240;2023-04-27T04:44:06;100319.19;;;4.36;100.00
804;BME280;25687;49.976;8.240;2023-04-27T04:46:32;100322.47;;;4.42;100.00
804;BME280;25687;49.976;8.240;2023-04-27T04:48:57;100328.41;;;4.42;100.00
804;BME280;25687;49.976;8.240;2023-04-27T04:51:22;100327.63;;;4.39;100.00
804;BME280;25687;49.976;8.240;2023-04-27T04:53:48;100324.88;;;4.48;100.00
804;BME280;25687;49.976;8.240;2023-04-27T04:56:14;100333.13;;;4.58;100.00
804;BME280;25687;49.976;8.240;2023-04-27T04:58:40;100325.50;;;4.56;100.00
804;BME280;25687;49.976;8.240;2023-04-27T05:01:06;100328.13;;;4.53;100.00
804;BME280;25687;49.976;8.240;2023-04-27T05:03:31;100332.16;;;4.62;100.00
804;BME280;25687;49.976;8.240;2023-04-27T05:05:57;100331.03;;;4.72;100.00
804;BME280;25687;49.976;8.240;2023-04-27T05:08:22;100339.31;;;4.80;100.00
804;BME280;25687;49.976;8.240;2023-04-27T05:10:51;100333.94;;;4.90;100.00
804;BME280;25687;49.976;8.240;2023-04-27T05:13:17;100339.53;;;5.04;100.00
804;BME280;25687;49.976;8.240;2023-04-27T05:15:42;100344.31;;;5.15;100.00
804;BME280;25687;49.976;8.240;2023-04-27T05:18:08;100343.97;;;5.27;100.00
804;BME280;25687;49.976;8.240;2023-04-27T05:20:36;100341.25;;;5.33;100.00
804;BME280;25687;49.976;8.240;2023-04-27T05:23:02;100341.91;;;5.40;100.00
804;BME280;25687;49.976;8.240;2023-04-27T05:25:31;100351.84;;;5.49;100.00
804;BME280;25687;49.976;8.240;2023-04-27T05:27:57;100350.56;;;5.63;100.00
804;BME280;25687;49.976;8.240;2023-04-27T05:30:22;100356.44;;;5.66;100.00
804;BME280;25687;49.976;8.240;2023-04-27T05:32:48;100356.47;;;5.65;100.00
804;BME280;25687;49.976;8.240;2023-04-27T05:35:16;100352.19;;;5.65;100.00
804;BME280;25687;49.976;8.240;2023-04-27T05:37:41;100353.31;;;5.85;100.00
804;BME280;25687;49.976;8.240;2023-04-27T05:40:07;100354.66;;;5.97;100.00
804;BME280;25687;49.976;8.240;2023-04-27T05:42:36;100355.94;;;6.12;100.00
804;BME280;25687;49.976;8.240;2023-04-27T05:45:02;100353.78;;;6.26;100.00
804;BME280;25687;49.976;8.240;2023-04-27T05:47:29;100354.00;;;6.45;100.00
804;BME280;25687;49.976;8.240;2023-04-27T05:49:54;100357.09;;;6.55;100.00
804;BME280;25687;49.976;8.240;2023-04-27T05:52:20;100354.00;;;6.71;100.00
804;BME280;25687;49.976;8.240;2023-04-27T05:54:49;100350.13;;;6.84;100.00
804;BME280;25687;49.976;8.240;2023-04-27T05:57:15;100352.75;;;7.06;100.00
804;BME280;25687;49.976;8.240;2023-04-27T05:59:41;100355.59;;;7.22;100.00
804;BME280;25687;49.976;8.240;2023-04-27T06:02:07;100356.41;;;7.23;100.00
804;BME280;25687;49.976;8.240;2023-04-27T06:04:32;100362.16;;;7.30;100.00
804;BME280;25687;49.976;8.240;2023-04-27T06:06:58;100366.97;;;7.61;100.00
804;BME280;25687;49.976;8.240;2023-04-27T06:09:24;100369.22;;;8.13;100.00
804;BME280;25687;49.976;8.240;2023-04-27T06:11:49;100371.03;;;8.75;100.00
804;BME280;25687;49.976;8.240;2023-04-27T06:14:15;100370.13;;;9.34;100.00
804;BME280;25687;49.976;8.240;2023-04-27T06:16:40;100364.66;;;9.61;97.33
804;BME280;25687;49.976;8.240;2023-04-27T06:19:06;100367.00;;;9.28;84.36
804;BME280;25687;49.976;8.240;2023-04-27T06:21:32;100372.47;;;8.80;86.85
804;BME280;25687;49.976;8.240;2023-04-27T06:23:57;100374.75;;;9.07;87.90
804;BME280;25687;49.976;8.240;2023-04-27T06:26:23;100376.16;;;9.33;82.94
804;BME280;25687;49.976;8.240;2023-04-27T06:28:48;100375.66;;;9.63;79.31
804;BME280;25687;49.976;8.240;2023-04-27T06:31:13;100381.59;;;9.65;74.63
804;BME280;25687;49.976;8.240;2023-04-27T06:33:39;100380.06;;;9.42;71.53
804;BME280;25687;49.976;8.240;2023-04-27T06:36:04;100379.84;;;9.47;73.05
804;BME280;25687;49.976;8.240;2023-04-27T06:38:30;100386.97;;;9.78;75.65
804;BME280;25687;49.976;8.240;2023-04-27T06:40:56;100388.09;;;10.27;66.28
804;BME280;25687;49.976;8.240;2023-04-27T06:43:21;100386.97;;;10.85;64.48
804;BME280;25687;49.976;8.240;2023-04-27T06:45:46;100386.25;;;11.97;56.68
804;BME280;25687;49.976;8.240;2023-04-27T06:48:12;100390.75;;;12.54;53.45
804;BME280;25687;49.976;8.240;2023-04-27T06:50:37;100390.84;;;12.52;52.83
804;BME280;25687;49.976;8.240;2023-04-27T06:53:02;100379.34;;;14.80;47.84
804;BME280;25687;49.976;8.240;2023-04-27T06:55:28;100381.13;;;15.16;43.93
804;BME280;25687;49.976;8.240;2023-04-27T06:57:53;100382.06;;;13.98;45.19
804;BME280;25687;49.976;8.240;2023-04-27T07:00:18;100377.25;;;13.08;47.76
804;BME280;25687;49.976;8.240;2023-04-27T07:02:44;100377.72;;;12.86;48.21
804;BME280;25687;49.976;8.240;2023-04-27T07:05:09;100375.69;;;13.05;48.10
804;BME280;25687;49.976;8.240;2023-04-27T07:07:34;100387.94;;;13.60;47.13
804;BME280;25687;49.976;8.240;2023-04-27T07:10:00;100384.31;;;13.62;45.58
804;BME280;25687;49.976;8.240;2023-04-27T07:12:25;100379.03;;;13.64;45.66
804;BME280;25687;49.976;8.240;2023-04-27T07:14:51;100379.06;;;14.04;45.47
804;BME280;25687;49.976;8.240;2023-04-27T07:17:16;100383.97;;;14.09;44.85
804;BME280;25687;49.976;8.240;2023-04-27T07:19:41;100392.16;;;14.15;44.97
804;BME280;25687;49.976;8.240;2023-04-27T07:22:06;100379.31;;;14.93;43.40
804;BME280;25687;49.976;8.240;2023-04-27T07:24:32;100385.31;;;15.06;42.57
804;BME280;25687;49.976;8.240;2023-04-27T07:26:57;100378.66;;;15.15;42.58
804;BME280;25687;49.976;8.240;2023-04-27T07:29:23;100385.59;;;14.63;43.10
804;BME280;25687;49.976;8.240;2023-04-27T07:31:52;100391.06;;;15.23;42.95
804;BME280;25687;49.976;8.240;2023-04-27T07:34:17;100382.81;;;15.17;42.95
804;BME280;25687;49.976;8.240;2023-04-27T07:36:43;100380.34;;;14.90;42.72
804;BME280;25687;49.976;8.240;2023-04-27T07:39:09;100375.38;;;15.74;42.27
804;BME280;25687;49.976;8.240;2023-04-27T07:41:35;100380.94;;;15.20;41.63
804;BME280;25687;49.976;8.240;2023-04-27T07:44:00;100380.41;;;15.27;41.44
804;BME280;25687;49.976;8.240;2023-04-27T07:46:26;100369.47;;;14.72;41.66
804;BME280;25687;49.976;8.240;2023-04-27T07:48:51;100372.69;;;14.23;43.29
804;BME280;25687;49.976;8.240;2023-04-27T07:51:19;100364.34;;;14.19;42.77
804;BME280;25687;49.976;8.240;2023-04-27T07:53:45;100361.41;;;15.40;40.22
804;BME280;25687;49.976;8.240;2023-04-27T07:56:10;100366.16;;;15.33;40.08
804;BME280;25687;49.976;8.240;2023-04-27T07:58:36;100370.81;;;16.02;39.06
804;BME280;25687;49.976;8.240;2023-04-27T08:01:02;100360.81;;;16.90;37.19
804;BME280;25687;49.976;8.240;2023-04-27T08:03:27;100372.50;;;18.91;34.67
804;BME280;25687;49.976;8.240;2023-04-27T08:05:54;100380.66;;;20.07;32.53
804;BME280;25687;49.976;8.240;2023-04-27T08:08:19;100373.22;;;19.63;33.24
804;BME280;25687;49.976;8.240;2023-04-27T08:10:45;100368.41;;;19.58;32.37
804;BME280;25687;49.976;8.240;2023-04-27T08:13:10;100372.13;;;18.74;33.32
804;BME280;25687;49.976;8.240;2023-04-27T08:15:36;100364.59;;;17.20;35.26
804;BME280;25687;49.976;8.240;2023-04-27T08:18:01;100376.19;;;17.27;35.90
804;BME280;25687;49.976;8.240;2023-04-27T08:20:27;100373.31;;;17.53;36.13
804;BME280;25687;49.976;8.240;2023-04-27T08:22:52;100366.16;;;17.00;36.20
804;BME280;25687;49.976;8.240;2023-04-27T08:25:18;100370.97;;;16.82;36.99
804;BME280;25687;49.976;8.240;2023-04-27T08:27:43;100370.16;;;17.15;37.48
804;BME280;25687;49.976;8.240;2023-04-27T08:30:09;100356.56;;;16.77;37.96
804;BME280;25687;49.976;8.240;2023-04-27T08:32:34;100358.25;;;18.43;37.16
804;BME280;25687;49.976;8.240;2023-04-27T08:34:59;100356.59;;;18.94;35.07
804;BME280;25687;49.976;8.240;2023-04-27T08:37:25;100364.28;;;18.01;35.37
804;BME280;25687;49.976;8.240;2023-04-27T08:39:50;100361.56;;;16.92;36.66
804;BME280;25687;49.976;8.240;2023-04-27T08:42:15;100371.56;;;17.31;36.35
804;BME280;25687;49.976;8.240;2023-04-27T08:44:41;100371.34;;;17.22;34.18
804;BME280;25687;49.976;8.240;2023-04-27T08:47:07;100366.91;;;18.43;33.93
804;BME280;25687;49.976;8.240;2023-04-27T08:49:34;100370.88;;;19.40;33.32
804;BME280;25687;49.976;8.240;2023-04-27T08:52:00;100380.53;;;18.14;33.43
804;BME280;25687;49.976;8.240;2023-04-27T08:54:26;100373.59;;;17.27;34.98
804;BME280;25687;49.976;8.240;2023-04-27T08:56:51;100373.22;;;15.92;36.81
804;BME280;25687;49.976;8.240;2023-04-27T08:59:17;100376.59;;;17.55;35.10
804;BME280;25687;49.976;8.240;2023-04-27T09:01:46;100381.06;;;18.29;33.67
804;BME280;25687;49.976;8.240;2023-04-27T09:04:13;100381.63;;;18.33;33.56
804;BME280;25687;49.976;8.240;2023-04-27T09:06:38;100379.41;;;18.28;33.82
804;BME280;25687;49.976;8.240;2023-04-27T09:09:04;100367.44;;;17.05;34.83
804;BME280;25687;49.976;8.240;2023-04-27T09:11:37;100373.34;;;16.85;34.79
804;BME280;25687;49.976;8.240;2023-04-27T09:14:20;100380.84;;;16.07;36.56
804;BME280;25687;49.976;8.240;2023-04-27T09:16:53;100367.34;;;17.18;35.13
804;BME280;25687;49.976;8.240;2023-04-27T09:19:25;100368.47;;;18.34;33.23
804;BME280;25687;49.976;8.240;2023-04-27T09:22:05;100376.69;;;18.51;32.00
804;BME280;25687;49.976;8.240;2023-04-27T09:24:31;100373.13;;;18.31;32.49
804;BME280;25687;49.976;8.240;2023-04-27T09:26:57;100371.97;;;17.58;32.71
804;BME280;25687;49.976;8.240;2023-04-27T09:29:36;100367.91;;;17.22;34.04
804;BME280;25687;49.976;8.240;2023-04-27T09:32:12;100362.38;;;20.07;31.41
804;BME280;25687;49.976;8.240;2023-04-27T09:34:38;100359.16;;;20.52;29.11
804;BME280;25687;49.976;8.240;2023-04-27T09:37:05;100363.63;;;20.70;28.53
804;BME280;25687;49.976;8.240;2023-04-27T09:39:31;100367.22;;;20.02;29.42
804;BME280;25687;49.976;8.240;2023-04-27T09:41:57;100358.97;;;20.73;28.22
804;BME280;25687;49.976;8.240;2023-04-27T09:44:22;100355.38;;;22.20;26.64
804;BME280;25687;49.976;8.240;2023-04-27T09:46:48;100376.47;;;20.63;27.96
804;BME280;25687;49.976;8.240;2023-04-27T09:49:16;100357.81;;;22.40;27.68
804;BME280;25687;49.976;8.240;2023-04-27T09:51:44;100357.19;;;22.81;25.74
804;BME280;25687;49.976;8.240;2023-04-27T09:54:10;100351.47;;;22.85;25.93
804;BME280;25687;49.976;8.240;2023-04-27T10:01:50;100359.78;;;19.67;29.61
804;BME280;25687;49.976;8.240;2023-04-27T10:07:16;100354.75;;;21.18;28.44
804;BME280;25687;49.976;8.240;2023-04-27T10:09:45;100350.16;;;22.02;27.27
804;BME280;25687;49.976;8.240;2023-04-27T10:12:26;100346.44;;;23.00;25.98
804;BME280;25687;49.976;8.240;2023-04-27T10:14:52;100353.16;;;23.79;25.31
804;BME280;25687;49.976;8.240;2023-04-27T10:17:23;100345.28;;;23.62;26.07
804;BME280;25687;49.976;8.240;2023-04-27T10:22:23;100354.13;;;24.36;24.16
804;BME280;25687;49.976;8.240;2023-04-27T10:24:50;100343.84;;;23.00;27.26
804;BME280;25687;49.976;8.240;2023-04-27T10:27:18;100338.25;;;22.95;26.85
804;BME280;25687;49.976;8.240;2023-04-27T10:29:46;100334.38;;;22.38;26.47
804;BME280;25687;49.976;8.240;2023-04-27T10:32:25;100328.06;;;24.82;25.17
804;BME280;25687;49.976;8.240;2023-04-27T10:35:04;100331.03;;;26.18;24.73
804;BME280;25687;49.976;8.240;2023-04-27T10:37:40;100336.91;;;24.25;24.33
804;BME280;25687;49.976;8.240;2023-04-27T10:40:08;100337.91;;;20.75;28.15
804;BME280;25687;49.976;8.240;2023-04-27T10:42:39;100336.03;;;18.38;31.80
804;BME280;25687;49.976;8.240;2023-04-27T10:45:05;100330.81;;;18.38;33.08
804;BME280;25687;49.976;8.240;2023-04-27T10:47:42;100325.94;;;17.70;32.63
804;BME280;25687;49.976;8.240;2023-04-27T10:50:09;100331.56;;;17.10;34.23
804;BME280;25687;49.976;8.240;2023-04-27T10:52:44;100323.13;;;16.84;35.61
804;BME280;25687;49.976;8.240;2023-04-27T10:57:49;100319.84;;;16.82;35.46
804;BME280;25687;49.976;8.240;2023-04-27T11:00:25;100322.06;;;16.41;37.01
804;BME280;25687;49.976;8.240;2023-04-27T11:02:56;100319.34;;;16.66;37.18
804;BME280;25687;49.976;8.240;2023-04-27T11:05:23;100312.41;;;16.66;36.23
804;BME280;25687;49.976;8.240;2023-04-27T11:08:03;100315.19;;;16.18;37.35
804;BME280;25687;49.976;8.240;2023-04-27T11:10:29;100299.88;;;17.17;37.58
804;BME280;25687;49.976;8.240;2023-04-27T11:12:55;100304.25;;;17.49;37.98
804;BME280;25687;49.976;8.240;2023-04-27T11:15:21;100297.88;;;17.53;36.72
804;BME280;25687;49.976;8.240;2023-04-27T11:17:46;100295.69;;;17.90;36.24
804;BME280;25687;49.976;8.240;2023-04-27T11:20:11;100291.72;;;18.08;35.41
804;BME280;25687;49.976;8.240;2023-04-27T11:22:44;100293.84;;;17.49;35.39
804;BME280;25687;49.976;8.240;2023-04-27T11:25:10;100291.63;;;16.66;37.50
804;BME280;25687;49.976;8.240;2023-04-27T11:27:39;100294.66;;;17.28;36.19
804;BME280;25687;49.976;8.240;2023-04-27T11:30:16;100286.66;;;17.73;35.17
804;BME280;25687;49.976;8.240;2023-04-27T11:32:42;100285.81;;;18.05;35.58
804;BME280;25687;49.976;8.240;2023-04-27T11:35:08;100284.34;;;17.91;34.86
804;BME280;25687;49.976;8.240;2023-04-27T11:37:34;100290.25;;;17.61;34.30
804;BME280;25687;49.976;8.240;2023-04-27T11:39:59;100284.13;;;17.62;33.56
804;BME280;25687;49.976;8.240;2023-04-27T11:42:27;100279.31;;;17.14;33.99
804;BME280;25687;49.976;8.240;2023-04-27T11:44:59;100275.88;;;17.24;35.45
804;BME280;25687;49.976;8.240;2023-04-27T11:47:27;100283.63;;;17.89;34.92
804;BME280;25687;49.976;8.240;2023-04-27T11:49:55;100269.94;;;17.66;33.43
804;BME280;25687;49.976;8.240;2023-04-27T11:52:21;100265.72;;;17.10;34.79
804;BME280;25687;49.976;8.240;2023-04-27T11:54:48;100269.13;;;17.54;36.24
804;BME280;25687;49.976;8.240;2023-04-27T11:57:13;100265.97;;;17.93;34.22
804;BME280;25687;49.976;8.240;2023-04-27T11:59:39;100267.72;;;17.83;35.05
804;BME280;25687;49.976;8.240;2023-04-27T12:02:04;100271.78;;;17.97;35.57
804;BME280;25687;49.976;8.240;2023-04-27T12:04:29;100265.44;;;18.11;34.82
804;BME280;25687;49.976;8.240;2023-04-27T12:06:56;100259.25;;;17.69;34.49
804;BME280;25687;49.976;8.240;2023-04-27T12:09:21;100263.31;;;17.30;36.08
804;BME280;25687;49.976;8.240;2023-04-27T12:11:46;100259.63;;;17.00;35.22
804;BME280;25687;49.976;8.240;2023-04-27T12:14:12;100250.44;;;16.96;35.82
804;BME280;25687;49.976;8.240;2023-04-27T12:16:37;100251.25;;;17.61;36.17
804;BME280;25687;49.976;8.240;2023-04-27T12:19:03;100251.38;;;17.81;35.26
804;BME280;25687;49.976;8.240;2023-04-27T12:21:29;100243.00;;;17.77;34.04
804;BME280;25687;49.976;8.240;2023-04-27T12:23:56;100243.25;;;17.53;37.61
804;BME280;25687;49.976;8.240;2023-04-27T12:26:21;100244.03;;;17.86;35.37
804;BME280;25687;49.976;8.240;2023-04-27T12:28:46;100244.25;;;17.94;36.14
804;BME280;25687;49.976;8.240;2023-04-27T12:31:13;100241.97;;;18.32;35.16
804;BME280;25687;49.976;8.240;2023-04-27T12:33:40;100236.16;;;18.59;35.92
804;BME280;25687;49.976;8.240;2023-04-27T12:36:05;100249.03;;;18.51;35.86
804;BME280;25687;49.976;8.240;2023-04-27T12:38:31;100251.44;;;17.90;35.50
804;BME280;25687;49.976;8.240;2023-04-27T12:40:58;100241.84;;;18.02;36.27
804;BME280;25687;49.976;8.240;2023-04-27T12:43:25;100236.41;;;18.15;35.21
804;BME280;25687;49.976;8.240;2023-04-27T12:45:51;100228.13;;;18.00;35.32
804;BME280;25687;49.976;8.240;2023-04-27T12:48:16;100224.78;;;18.19;37.04
804;BME280;25687;49.976;8.240;2023-04-27T12:50:42;100226.63;;;18.29;37.15
804;BME280;25687;49.976;8.240;2023-04-27T12:53:07;100225.75;;;18.18;37.02
804;BME280;25687;49.976;8.240;2023-04-27T12:55:32;100224.41;;;17.07;36.73
804;BME280;25687;49.976;8.240;2023-04-27T12:57:57;100230.41;;;17.07;38.74
804;BME280;25687;49.976;8.240;2023-04-27T13:00:23;100218.22;;;17.73;37.77
804;BME280;25687;49.976;8.240;2023-04-27T13:02:50;100218.06;;;17.53;36.53
804;BME280;25687;49.976;8.240;2023-04-27T13:05:15;100216.19;;;17.77;36.92
804;BME280;25687;49.976;8.240;2023-04-27T13:07:41;100209.91;;;18.00;38.02
804;BME280;25687;49.976;8.240;2023-04-27T13:10:06;100213.56;;;17.34;36.88
804;BME280;25687;49.976;8.240;2023-04-27T13:12:32;100216.41;;;17.52;37.62
804;BME280;25687;49.976;8.240;2023-04-27T13:14:57;100217.25;;;17.20;38.45
804;BME280;25687;49.976;8.240;2023-04-27T13:17:23;100201.78;;;17.72;39.01
804;BME280;25687;49.976;8.240;2023-04-27T13:19:48;100202.81;;;17.91;37.50
804;BME280;25687;49.976;8.240;2023-04-27T13:22:13;100198.84;;;18.08;37.79